createdAt,value
2022-09-10T00:03:56.680Z,2.80
2022-09-10T00:08:57.664Z,3.15
2022-09-10T00:11:26.682Z,2.85
2022-09-10T00:13:53.389Z,2.42
2022-09-10T00:16:20.274Z,3.05
2022-09-10T00:21:20.796Z,2.70
2022-09-10T00:23:48.891Z,2.70
2022-09-10T00:26:29.733Z,2.00
2022-09-10T00:29:01.221Z,2.53
2022-09-10T00:31:30.194Z,2.05
2022-09-10T00:33:59.092Z,2.80
2022-09-10T00:36:28.788Z,2.58
2022-09-10T00:38:58.493Z,2.55
2022-09-10T00:41:26.423Z,2.60
2022-09-10T00:43:59.031Z,2.10
2022-09-10T00:46:50.096Z,3.03
2022-09-10T00:49:33.496Z,2.50
2022-09-10T00:52:01.223Z,2.53
2022-09-10T00:54:30.355Z,2.58
2022-09-10T00:57:01.095Z,2.92
2022-09-10T00:59:28.364Z,2.28
2022-09-10T01:01:55.682Z,2.33
2022-09-10T01:04:22.835Z,2.00
2022-09-10T01:06:51.883Z,1.92
2022-09-10T01:09:21.123Z,2.38
2022-09-10T01:12:35.802Z,1.92
2022-09-10T01:15:43.772Z,2.80
2022-09-10T01:18:32.511Z,2.67
2022-09-10T01:21:25.795Z,2.75
2022-09-10T01:24:20.010Z,2.58
2022-09-10T01:27:21.297Z,2.30
2022-09-10T01:30:06.122Z,3.00
2022-09-10T01:32:37.281Z,2.45
2022-09-10T01:35:43.146Z,2.70
2022-09-10T01:38:15.427Z,2.40
2022-09-10T01:40:43.547Z,2.78
2022-09-10T01:43:14.965Z,2.63
2022-09-10T01:45:51.346Z,3.10
2022-09-10T01:48:57.695Z,3.92
2022-09-10T01:51:31.903Z,2.28
2022-09-10T01:54:26.268Z,2.67
2022-09-10T01:57:23.172Z,2.72
2022-09-10T02:00:09.457Z,3.20
2022-09-10T02:02:55.512Z,2.72
2022-09-10T02:05:29.732Z,2.67
2022-09-10T02:08:02.427Z,2.50
2022-09-10T02:10:29.697Z,3.03
2022-09-10T02:15:49.162Z,2.40
2022-09-10T02:18:24.711Z,2.88
2022-09-10T02:20:55.906Z,2.22
2022-09-10T02:23:28.142Z,2.17
2022-09-10T02:25:54.843Z,2.60
2022-09-10T02:28:27.776Z,2.50
2022-09-10T02:30:55.045Z,2.53
2022-09-10T02:33:21.915Z,2.22
2022-09-10T02:35:49.774Z,2.40
2022-09-10T02:38:18.054Z,1.95
2022-09-10T02:40:46.721Z,2.17
2022-09-10T02:43:13.382Z,2.45
2022-09-10T02:45:40.999Z,2.10
2022-09-10T02:48:07.751Z,2.10
2022-09-10T02:53:03.803Z,2.17
2022-09-10T02:57:58.621Z,2.75
2022-09-10T03:00:25.731Z,2.55
2022-09-10T03:03:00.879Z,2.42
2022-09-10T03:05:29.779Z,2.13
2022-09-10T03:07:57.565Z,2.42
2022-09-10T03:10:24.521Z,2.08
2022-09-10T03:12:51.996Z,2.50
2022-09-10T03:15:20.545Z,2.40
2022-09-10T03:17:47.521Z,2.70
2022-09-10T03:20:14.654Z,3.10
2022-09-10T03:22:41.451Z,2.30
2022-09-10T03:25:11.864Z,2.55
2022-09-10T03:30:08.425Z,2.17
2022-09-10T03:32:35.311Z,2.28
2022-09-10T03:35:02.002Z,2.63
2022-09-10T03:37:28.691Z,2.20
2022-09-10T03:39:55.540Z,2.25
2022-09-10T03:44:49.136Z,2.30
2022-09-10T03:49:42.647Z,2.95
2022-09-10T03:52:12.651Z,2.88
2022-09-10T03:54:41.228Z,3.10
2022-09-10T03:59:35.577Z,2.87
2022-09-10T04:02:03.043Z,2.30
2022-09-10T04:04:31.451Z,2.90
2022-09-10T04:06:58.259Z,3.17
2022-09-10T04:09:25.223Z,3.83
2022-09-10T04:11:52.065Z,3.25
2022-09-10T04:14:21.707Z,3.75
2022-09-10T04:16:48.627Z,3.65
2022-09-10T04:19:15.654Z,3.40
2022-09-10T04:24:12.479Z,2.75
2022-09-10T04:26:39.513Z,3.33
2022-09-10T04:29:06.997Z,2.78
2022-09-10T04:31:33.851Z,4.05
2022-09-10T04:34:08.506Z,4.63
2022-09-10T04:36:35.229Z,3.60
2022-09-10T04:39:02.951Z,3.17
2022-09-10T04:41:31.467Z,3.72
2022-09-10T04:43:58.941Z,4.10
2022-09-10T04:46:26.008Z,2.95
2022-09-10T04:48:54.652Z,3.25
2022-09-10T04:51:23.836Z,4.07
2022-09-10T04:53:54.505Z,3.70
2022-09-10T04:56:26.287Z,4.50
2022-09-10T04:58:53.189Z,3.88
2022-09-10T05:01:20.011Z,4.20
2022-09-10T05:03:50.324Z,4.07
2022-09-10T05:06:18.738Z,3.88
2022-09-10T05:08:47.072Z,3.53
2022-09-10T05:13:41.566Z,5.00
2022-09-10T05:16:08.380Z,3.75
2022-09-10T05:23:32.973Z,3.50
2022-09-10T05:26:01.029Z,4.82
2022-09-10T05:28:28.695Z,4.53
2022-09-10T05:30:55.769Z,3.90
2022-09-10T05:33:24.882Z,4.07
2022-09-10T05:35:52.076Z,3.35
2022-09-10T05:38:20.286Z,3.17
2022-09-10T05:40:48.217Z,3.70
2022-09-10T05:43:15.285Z,4.47
2022-09-10T05:45:44.028Z,3.50
2022-09-10T05:50:38.450Z,3.67
2022-09-10T05:53:05.394Z,3.67
2022-09-10T05:55:33.282Z,3.78
2022-09-10T05:58:00.622Z,3.83
2022-09-10T06:00:27.756Z,2.65
2022-09-10T06:02:59.479Z,3.15
2022-09-10T06:05:51.331Z,3.80
2022-09-10T06:08:23.180Z,3.13
2022-09-10T06:11:04.344Z,2.70
2022-09-10T06:13:39.672Z,2.88
2022-09-10T06:16:07.405Z,2.85
2022-09-10T06:18:34.510Z,3.63
2022-09-10T06:21:09.269Z,3.55
2022-09-10T06:23:36.179Z,3.80
2022-09-10T06:26:08.468Z,3.38
2022-09-10T06:28:37.042Z,2.90
2022-09-10T06:31:06.374Z,3.75
2022-09-10T06:33:36.120Z,3.53
2022-09-10T06:36:04.382Z,3.17
2022-09-10T06:38:36.532Z,2.92
2022-09-10T06:41:13.048Z,4.15
2022-09-10T06:43:47.162Z,4.07
2022-09-10T06:47:10.646Z,3.15
2022-09-10T06:49:21.573Z,3.33
2022-09-10T06:51:54.758Z,2.88
2022-09-10T06:54:26.409Z,4.03
2022-09-10T06:56:57.804Z,3.50
2022-09-10T06:59:24.894Z,4.50
2022-09-10T07:04:20.559Z,3.67
2022-09-10T07:06:48.721Z,3.63
2022-09-10T07:09:16.495Z,3.63
2022-09-10T07:11:52.222Z,4.05
2022-09-10T07:14:19.299Z,4.20
2022-09-10T07:16:47.424Z,4.03
2022-09-10T07:19:15.228Z,3.75
2022-09-10T07:21:47.178Z,4.47
2022-09-10T07:24:16.097Z,4.45
2022-09-10T07:26:59.362Z,4.82
2022-09-10T07:29:26.431Z,3.78
2022-09-10T07:31:53.853Z,4.30
2022-09-10T07:34:23.685Z,3.30
2022-09-10T07:36:50.653Z,3.95
2022-09-10T07:39:22.327Z,4.68
2022-09-10T07:41:52.226Z,4.00
2022-09-10T07:44:21.938Z,3.20
2022-09-10T07:46:48.735Z,3.35
2022-09-10T07:49:17.093Z,3.05
2022-09-10T07:51:47.251Z,2.70
2022-09-10T07:54:17.116Z,3.00
2022-09-10T07:56:49.532Z,3.13
2022-09-10T08:01:50.650Z,2.75
2022-09-10T08:04:19.917Z,2.45
2022-09-10T08:06:46.839Z,2.80
2022-09-10T08:11:49.442Z,3.13
2022-09-10T08:14:19.465Z,2.42
2022-09-10T08:16:51.112Z,3.28
2022-09-10T08:19:18.080Z,2.60
2022-09-10T08:21:45.598Z,2.30
2022-09-10T08:24:18.872Z,2.20
2022-09-10T08:26:48.477Z,2.05
2022-09-10T08:29:15.292Z,2.25
2022-09-10T08:31:42.521Z,2.10
2022-09-10T08:34:17.059Z,1.92
2022-09-10T08:36:50.231Z,1.75
2022-09-10T08:39:17.167Z,2.70
2022-09-10T08:41:52.720Z,2.42
2022-09-10T08:44:39.765Z,2.90
2022-09-10T08:47:10.381Z,1.88
2022-09-10T08:49:44.486Z,2.47
2022-09-10T08:52:29.144Z,2.50
2022-09-10T08:55:10.980Z,1.80
2022-09-10T08:57:45.195Z,2.53
2022-09-10T09:00:24.565Z,2.90
2022-09-10T09:03:03.127Z,2.00
2022-09-10T09:05:51.040Z,2.80
2022-09-10T09:08:25.315Z,2.58
2022-09-10T09:11:07.093Z,1.92
2022-09-10T09:13:33.939Z,2.50
2022-09-10T09:16:42.128Z,2.17
2022-09-10T09:19:30.406Z,3.22
2022-09-10T09:22:27.999Z,2.10
2022-09-10T09:25:20.746Z,2.22
2022-09-10T09:27:51.912Z,2.72
2022-09-10T09:30:32.177Z,2.30
2022-09-10T09:33:10.489Z,2.30
2022-09-10T09:35:47.028Z,2.63
2022-09-10T09:38:34.651Z,1.92
2022-09-10T09:41:07.644Z,1.92
2022-09-10T09:43:54.556Z,2.22
2022-09-10T09:46:24.410Z,2.35
2022-09-10T09:49:01.562Z,1.95
2022-09-10T09:51:35.241Z,1.75
2022-09-10T09:54:46.522Z,2.65
2022-09-10T09:57:01.493Z,2.08
2022-09-10T09:59:32.035Z,2.38
2022-09-10T10:02:06.455Z,2.70
2022-09-10T10:04:36.998Z,3.05
2022-09-10T10:07:06.527Z,2.47
2022-09-10T10:09:38.712Z,2.40
2022-09-10T10:12:07.126Z,2.10
2022-09-10T10:14:38.104Z,2.65
2022-09-10T10:17:30.650Z,2.58
2022-09-10T10:20:17.211Z,2.55
2022-09-10T10:22:46.389Z,2.63
2022-09-10T10:25:34.096Z,2.70
2022-09-10T10:28:00.982Z,2.20
2022-09-10T10:30:30.008Z,2.05
2022-09-10T10:33:02.238Z,3.05
2022-09-10T10:36:04.197Z,2.58
2022-09-10T10:38:47.037Z,3.40
2022-09-10T10:41:35.923Z,2.75
2022-09-10T10:44:43.173Z,2.65
2022-09-10T10:47:38.803Z,2.00
2022-09-10T10:50:23.142Z,2.95
2022-09-10T10:53:06.141Z,2.22
2022-09-10T10:55:39.851Z,2.95
2022-09-10T10:58:17.624Z,2.78
2022-09-10T11:00:49.945Z,2.70
2022-09-10T11:03:21.336Z,2.03
2022-09-10T11:06:03.087Z,1.77
2022-09-10T11:08:32.278Z,1.73
2022-09-10T11:11:25.056Z,1.58
2022-09-10T11:14:16.207Z,1.23
2022-09-10T11:16:58.977Z,1.52
2022-09-10T11:20:11.175Z,2.08
2022-09-10T11:22:53.724Z,2.17
2022-09-10T11:25:30.468Z,1.65
2022-09-10T11:28:26.571Z,1.83
2022-09-10T11:31:06.829Z,1.30
2022-09-10T11:34:00.303Z,1.13
2022-09-10T11:36:49.390Z,1.17
2022-09-10T11:39:19.468Z,1.20
2022-09-10T11:41:50.458Z,1.05
2022-09-10T11:44:36.583Z,0.88
2022-09-10T11:47:14.422Z,1.00
2022-09-10T11:50:06.977Z,1.23
2022-09-10T11:52:35.170Z,1.02
2022-09-10T11:55:08.599Z,0.77
2022-09-10T11:58:11.886Z,0.90
2022-09-10T12:01:12.355Z,0.80
2022-09-10T12:03:54.096Z,0.57
2022-09-10T12:06:43.234Z,0.55
2022-09-10T12:09:31.888Z,0.40
2022-09-10T12:12:14.182Z,0.40
2022-09-10T12:14:41.549Z,0.13
2022-09-10T12:17:17.425Z,0.35
2022-09-10T12:19:54.656Z,0.37
2022-09-10T12:22:33.359Z,0.40
2022-09-10T12:25:06.788Z,0.70
2022-09-10T12:27:52.624Z,0.57
2022-09-10T12:30:34.836Z,0.50
2022-09-10T12:33:24.894Z,0.40
2022-09-10T12:35:57.506Z,0.30
2022-09-10T12:38:51.023Z,0.70
2022-09-10T12:41:23.634Z,0.60
2022-09-10T12:43:58.813Z,0.52
2022-09-10T12:46:27.069Z,0.60
2022-09-10T12:48:55.477Z,0.40
2022-09-10T12:51:40.981Z,0.40
2022-09-10T12:54:29.626Z,0.45
2022-09-10T12:57:21.258Z,0.52
2022-09-10T13:00:13.298Z,0.60
2022-09-10T13:02:58.702Z,0.50
2022-09-10T13:05:43.673Z,0.50
2022-09-10T13:08:18.904Z,0.30
2022-09-10T13:10:53.422Z,0.50
2022-09-10T13:13:32.118Z,0.30
2022-09-10T13:15:59.749Z,0.38
2022-09-10T13:18:30.770Z,0.20
2022-09-10T13:20:59.068Z,0.30
2022-09-10T13:23:47.934Z,0.43
2022-09-10T13:26:37.346Z,0.47
2022-09-10T13:29:11.297Z,0.40
2022-09-10T13:31:44.635Z,0.30
2022-09-10T13:34:14.282Z,0.40
2022-09-10T13:37:12.303Z,0.30
2022-09-10T13:40:03.013Z,0.22
2022-09-10T13:43:07.578Z,0.20
2022-09-10T13:45:39.461Z,0.30
2022-09-10T13:48:41.713Z,0.20
2022-09-10T13:51:20.535Z,0.20
2022-09-10T13:53:49.214Z,0.30
2022-09-10T13:56:29.560Z,0.20
2022-09-10T13:59:03.060Z,0.30
2022-09-10T14:01:50.758Z,0.30
2022-09-10T14:04:31.938Z,0.35
2022-09-10T14:07:25.588Z,0.88
2022-09-10T14:09:57.158Z,0.20
2022-09-10T14:12:28.250Z,0.20
2022-09-10T14:14:57.253Z,0.38
2022-09-10T14:17:32.298Z,0.52
2022-09-10T14:20:02.330Z,0.45
2022-09-10T14:22:32.146Z,0.30
2022-09-10T14:25:04.127Z,0.57
2022-09-10T14:27:33.590Z,0.40
2022-09-10T14:30:25.353Z,0.40
2022-09-10T14:32:53.085Z,0.40
2022-09-10T14:35:39.365Z,0.70
2022-09-10T14:38:25.980Z,0.30
2022-09-10T14:41:08.485Z,0.25
2022-09-10T14:43:40.854Z,0.38
2022-09-10T14:46:46.400Z,0.40
2022-09-10T14:49:18.706Z,0.40
2022-09-10T14:51:46.135Z,0.55
2022-09-10T14:54:14.912Z,0.40
2022-09-10T14:56:46.215Z,0.50
2022-09-10T14:59:18.339Z,0.63
2022-09-10T15:01:48.539Z,0.90
2022-09-10T15:04:18.523Z,0.50
2022-09-10T15:06:45.527Z,0.40
2022-09-10T15:09:15.609Z,0.50
2022-09-10T15:11:54.825Z,0.35
2022-09-10T15:14:22.516Z,0.47
2022-09-10T15:16:52.171Z,0.43
2022-09-10T15:19:19.857Z,0.70
2022-09-10T15:21:47.133Z,0.90
2022-09-10T15:24:19.260Z,2.17
2022-09-10T15:26:47.054Z,0.95
2022-09-10T15:29:14.688Z,0.82
2022-09-10T15:31:42.334Z,0.93
2022-09-10T15:34:10.888Z,1.10
2022-09-10T15:36:40.222Z,0.77
2022-09-10T15:39:08.797Z,1.00
2022-09-10T15:41:35.967Z,0.98
2022-09-10T15:44:05.085Z,1.00
2022-09-10T15:46:32.501Z,1.13
2022-09-10T15:48:59.566Z,1.15
2022-09-10T15:51:26.847Z,0.70
2022-09-10T15:53:54.689Z,0.60
2022-09-10T15:56:24.785Z,0.88
2022-09-10T15:58:56.206Z,0.85
2022-09-10T16:01:25.094Z,0.90
2022-09-10T16:03:57.866Z,1.00
2022-09-10T16:06:27.796Z,0.65
2022-09-10T16:09:02.241Z,1.02
2022-09-10T16:11:31.366Z,0.98
2022-09-10T16:14:04.238Z,0.93
2022-09-10T16:16:32.832Z,0.90
2022-09-10T16:19:00.759Z,0.90
2022-09-10T16:21:33.610Z,1.00
2022-09-10T16:24:01.218Z,0.80
2022-09-10T16:26:39.880Z,0.88
2022-09-10T16:29:12.537Z,0.82
2022-09-10T16:31:40.054Z,0.93
2022-09-10T16:34:09.951Z,1.10
2022-09-10T16:36:38.361Z,0.88
2022-09-10T16:39:12.021Z,1.00
2022-09-10T16:41:44.093Z,0.85
2022-09-10T16:44:12.077Z,1.10
2022-09-10T16:46:39.633Z,0.90
2022-09-10T16:49:08.538Z,0.93
2022-09-10T16:51:35.668Z,0.77
2022-09-10T16:54:05.005Z,1.10
2022-09-10T16:56:41.982Z,1.10
2022-09-10T16:59:15.212Z,1.05
2022-09-10T17:01:44.210Z,1.08
2022-09-10T17:04:37.942Z,1.25
2022-09-10T17:07:04.933Z,0.90
2022-09-10T17:09:32.800Z,1.58
2022-09-10T17:12:00.789Z,1.02
2022-09-10T17:14:27.889Z,0.82
2022-09-10T17:16:55.081Z,1.23
2022-09-10T17:19:26.045Z,1.17
2022-09-10T17:21:55.578Z,1.00
2022-09-10T17:24:27.012Z,2.30
2022-09-10T17:26:55.302Z,2.45
2022-09-10T17:29:25.046Z,1.25
2022-09-10T17:31:52.489Z,1.17
2022-09-10T17:34:24.357Z,3.83
2022-09-10T17:36:52.107Z,2.20
2022-09-10T17:39:19.255Z,1.50
2022-09-10T17:41:45.963Z,1.15
2022-09-10T17:46:42.556Z,1.08
2022-09-10T17:49:12.252Z,1.10
2022-09-10T17:51:39.025Z,1.58
2022-09-10T17:56:32.466Z,1.38
2022-09-10T18:01:33.029Z,1.40
2022-09-10T18:03:59.829Z,1.30
2022-09-10T18:09:00.910Z,1.48
2022-09-10T18:11:31.487Z,1.50
2022-09-10T18:13:59.442Z,1.60
2022-09-10T18:16:29.489Z,2.25
2022-09-10T18:19:00.033Z,1.70
2022-09-10T18:21:29.519Z,1.90
2022-09-10T18:24:00.349Z,2.10
2022-09-10T18:26:30.034Z,2.10
2022-09-10T18:29:05.230Z,2.20
2022-09-10T18:31:35.343Z,2.20
2022-09-10T18:34:03.609Z,2.10
2022-09-10T18:36:31.437Z,2.35
2022-09-10T18:39:02.754Z,1.98
2022-09-10T18:41:32.576Z,2.38
2022-09-10T18:44:04.472Z,2.60
2022-09-10T18:46:32.784Z,2.50
2022-09-10T18:49:00.365Z,2.55
2022-09-10T18:51:28.687Z,2.22
2022-09-10T18:54:00.708Z,3.15
2022-09-10T18:56:31.865Z,2.78
2022-09-10T18:59:08.934Z,3.17
2022-09-10T19:01:37.901Z,3.00
2022-09-10T19:04:07.077Z,2.95
2022-09-10T19:06:36.107Z,3.30
2022-09-10T19:09:09.858Z,2.95
2022-09-10T19:11:47.020Z,2.92
2022-09-10T19:14:19.689Z,2.60
2022-09-10T19:16:48.032Z,2.50
2022-09-10T19:19:22.519Z,3.92
2022-09-10T19:21:52.027Z,2.33
2022-09-10T19:24:32.849Z,2.20
2022-09-10T19:27:06.533Z,1.70
2022-09-10T19:32:00.724Z,1.50
2022-09-10T19:34:33.681Z,1.90
2022-09-10T19:37:00.586Z,1.65
2022-09-10T19:39:27.600Z,1.45
2022-09-10T19:41:54.501Z,1.85
2022-09-10T19:44:21.380Z,1.80
2022-09-10T19:46:48.204Z,1.88
2022-09-10T19:51:44.140Z,2.20
2022-09-10T19:54:12.041Z,2.10
2022-09-10T19:56:42.231Z,1.95
2022-09-10T19:59:10.091Z,2.55
2022-09-10T20:01:40.260Z,1.90
2022-09-10T20:04:09.522Z,2.40
2022-09-10T20:06:37.153Z,2.85
2022-09-10T20:09:06.007Z,2.50
2022-09-10T20:11:35.156Z,3.08
2022-09-10T20:14:07.762Z,2.55
2022-09-10T20:16:40.002Z,2.33
2022-09-10T20:19:07.718Z,2.85
2022-09-10T20:21:35.925Z,2.40
2022-09-10T20:24:03.517Z,2.15
2022-09-10T20:26:32.653Z,2.80
2022-09-10T20:29:01.729Z,2.25
2022-09-10T20:31:31.447Z,2.75
2022-09-10T20:34:00.941Z,2.75
2022-09-10T20:36:28.469Z,2.50
2022-09-10T20:38:56.871Z,2.80
2022-09-10T20:41:25.194Z,2.75
2022-09-10T20:43:53.212Z,2.20
2022-09-10T20:46:22.246Z,2.58
2022-09-10T20:48:51.022Z,2.05
2022-09-10T20:51:19.484Z,2.63
2022-09-10T20:53:47.242Z,2.08
2022-09-10T20:56:17.825Z,2.80
2022-09-10T20:58:45.537Z,2.22
2022-09-10T21:01:16.460Z,2.38
2022-09-10T21:03:43.968Z,2.08
2022-09-10T21:06:11.993Z,1.90
2022-09-10T21:08:41.019Z,1.77
2022-09-10T21:11:13.285Z,2.15
2022-09-10T21:13:47.704Z,1.50
2022-09-10T21:16:21.005Z,2.10
2022-09-10T21:18:54.733Z,1.73
2022-09-10T21:21:25.557Z,1.50
2022-09-10T21:23:57.849Z,1.45
2022-09-10T21:26:27.286Z,1.67
2022-09-10T21:28:59.356Z,1.42
2022-09-10T21:31:28.283Z,1.30
2022-09-10T21:34:01.938Z,1.70
2022-09-10T21:36:31.092Z,1.83
2022-09-10T21:39:00.153Z,2.10
2022-09-10T21:41:28.920Z,1.90
2022-09-10T21:43:55.920Z,1.88
2022-09-10T21:46:24.037Z,1.90
2022-09-10T21:48:51.165Z,2.20
2022-09-10T21:51:19.663Z,1.95
2022-09-10T21:53:47.057Z,2.45
2022-09-10T21:56:16.853Z,1.70
2022-09-10T21:58:48.320Z,1.67
2022-09-10T22:01:21.956Z,2.05
2022-09-10T22:03:53.125Z,1.60
2022-09-10T22:06:25.235Z,1.83
2022-09-10T22:09:01.668Z,2.00
2022-09-10T22:11:34.719Z,2.17
2022-09-10T22:14:04.915Z,2.10
2022-09-10T22:16:34.420Z,1.65
2022-09-10T22:19:04.858Z,1.55
2022-09-10T22:21:31.924Z,1.98
2022-09-10T22:23:59.031Z,1.70
2022-09-10T22:26:30.724Z,1.60
2022-09-10T22:28:59.712Z,1.45
2022-09-10T22:31:35.115Z,1.83
2022-09-10T22:34:08.476Z,1.60
2022-09-10T22:36:37.406Z,1.67
2022-09-10T22:39:12.169Z,1.98
2022-09-10T22:41:39.523Z,1.60
2022-09-10T22:44:07.181Z,2.15
2022-09-10T22:46:35.482Z,2.72
2022-09-10T22:49:04.461Z,2.60
2022-09-10T22:51:35.146Z,1.90
2022-09-10T22:54:02.721Z,2.22
2022-09-10T22:56:29.946Z,2.20
2022-09-10T22:59:02.734Z,2.17
2022-09-10T23:01:33.810Z,2.65
2022-09-10T23:04:02.825Z,2.42
2022-09-10T23:06:31.891Z,2.30
2022-09-10T23:09:08.655Z,2.65
2022-09-10T23:11:37.844Z,2.60
2022-09-10T23:14:09.116Z,2.60
2022-09-10T23:16:39.192Z,2.40
2022-09-10T23:19:11.531Z,2.40
2022-09-10T23:21:48.779Z,3.13
2022-09-10T23:24:20.337Z,3.00
2022-09-10T23:26:47.673Z,2.38
2022-09-10T23:29:18.458Z,2.65
2022-09-10T23:31:47.547Z,3.30
2022-09-10T23:34:19.691Z,3.47
2022-09-10T23:36:48.705Z,3.30
2022-09-10T23:39:18.128Z,3.35
2022-09-10T23:41:45.937Z,3.65
2022-09-10T23:44:13.513Z,2.80
2022-09-10T23:46:41.027Z,3.88
2022-09-10T23:49:08.968Z,2.92
2022-09-10T23:51:37.054Z,3.25
2022-09-10T23:54:04.472Z,3.05
2022-09-10T23:56:31.935Z,3.53
2022-09-10T23:59:05.109Z,3.70
